createdAt,value
2018-06-14T00:00:50.049Z,98863.27
2018-06-14T00:03:19.109Z,98861.09
2018-06-14T00:05:48.181Z,98863.02
2018-06-14T00:08:17.256Z,98859.73
2018-06-14T00:10:46.357Z,98853.98
2018-06-14T00:13:15.368Z,98849.34
2018-06-14T00:15:44.379Z,98854.82
2018-06-14T00:18:13.556Z,98860.29
2018-06-14T00:20:42.488Z,98852.91
2018-06-14T00:23:11.492Z,98858.92
2018-06-14T00:25:40.427Z,98857.28
2018-06-14T00:28:09.392Z,98858.92
2018-06-14T00:30:38.529Z,98845.53
2018-06-14T00:33:07.525Z,98852.10
2018-06-14T00:35:36.593Z,98849.36
2018-06-14T00:38:05.614Z,98838.69
2018-06-14T00:40:34.620Z,98839.50
2018-06-14T00:43:03.779Z,98829.64
2018-06-14T00:45:32.729Z,98817.09
2018-06-14T00:48:01.742Z,98803.14
2018-06-14T00:50:30.736Z,98797.11
2018-06-14T00:52:59.740Z,98789.46
2018-06-14T00:55:28.773Z,98780.98
2018-06-14T00:57:57.728Z,98790.56
2018-06-14T01:00:26.664Z,98793.30
2018-06-14T01:02:55.596Z,98788.89
2018-06-14T01:05:24.541Z,98780.95
2018-06-14T01:07:53.606Z,98768.65
2018-06-14T01:10:22.604Z,98773.03
2018-06-14T01:12:51.550Z,98775.22
2018-06-14T01:15:20.556Z,98776.29
2018-06-14T01:17:50.360Z,98774.66
2018-06-14T01:20:19.447Z,98775.20
2018-06-14T01:22:48.433Z,98772.73
2018-06-14T01:25:17.374Z,98767.81
2018-06-14T01:27:46.442Z,98763.16
2018-06-14T01:30:15.455Z,98762.36
2018-06-14T01:32:44.532Z,98756.34
2018-06-14T01:35:13.528Z,98759.35
2018-06-14T01:37:53.392Z,98762.36
2018-06-14T01:40:22.488Z,98764.02
2018-06-14T01:42:51.484Z,98754.44
2018-06-14T01:45:20.550Z,98748.69
2018-06-14T01:47:49.536Z,98739.66
2018-06-14T01:50:18.524Z,98740.23
2018-06-14T01:52:47.512Z,98747.08
2018-06-14T01:55:16.452Z,98749.54
2018-06-14T01:57:45.397Z,98753.89
2018-06-14T02:00:14.444Z,98748.15
2018-06-14T02:02:43.444Z,98754.17
2018-06-14T02:05:12.383Z,98756.63
2018-06-14T02:07:41.396Z,98749.52
2018-06-14T02:10:10.404Z,98755.52
2018-06-14T02:12:39.409Z,98754.70
2018-06-14T02:15:08.481Z,98752.23
2018-06-14T02:17:37.481Z,98752.23
2018-06-14T02:20:06.621Z,98750.59
2018-06-14T02:22:35.617Z,98744.84
2018-06-14T02:25:04.600Z,98750.07
2018-06-14T02:27:33.684Z,98753.05
2018-06-14T02:30:02.724Z,98745.69
2018-06-14T02:32:31.684Z,98751.98
2018-06-14T02:35:00.716Z,98749.81
2018-06-14T02:37:29.855Z,98751.19
2018-06-14T02:39:58.976Z,98754.19
2018-06-14T02:42:28.040Z,98749.52
2018-06-14T02:44:57.140Z,98755.83
2018-06-14T02:47:26.141Z,98757.72
2018-06-14T02:49:55.076Z,98758.55
2018-06-14T02:52:24.139Z,98762.90
2018-06-14T02:54:53.137Z,98760.17
2018-06-14T02:57:22.193Z,98763.18
2018-06-14T02:59:51.200Z,98762.34
2018-06-14T03:02:20.222Z,98769.70
2018-06-14T03:04:49.207Z,98767.52
2018-06-14T03:07:33.688Z,98770.22
2018-06-14T03:10:03.870Z,98763.08
2018-06-14T03:12:32.812Z,98763.08
2018-06-14T03:15:01.870Z,98767.14
2018-06-14T03:17:30.813Z,98769.33
2018-06-14T03:19:59.845Z,98765.69
2018-06-14T03:22:28.957Z,98764.83
2018-06-14T03:24:57.980Z,98768.92
2018-06-14T03:27:27.040Z,98763.08
2018-06-14T03:29:56.096Z,98753.46
2018-06-14T03:32:25.080Z,98759.45
2018-06-14T03:34:54.023Z,98753.95
2018-06-14T03:37:23.024Z,98747.34
2018-06-14T03:39:52.024Z,98752.74
2018-06-14T03:42:20.965Z,98759.21
2018-06-14T03:44:49.913Z,98762.20
2018-06-14T03:47:19.056Z,98761.86
2018-06-14T03:49:48.012Z,98758.77
2018-06-14T03:52:17.026Z,98769.95
2018-06-14T03:54:46.032Z,98777.80
2018-06-14T03:57:15.124Z,98776.94
2018-06-14T03:59:44.086Z,98775.27
2018-06-14T04:02:13.042Z,98782.66
2018-06-14T04:04:42.097Z,98783.66
2018-06-14T04:07:11.165Z,98786.04
2018-06-14T04:09:40.173Z,98792.20
2018-06-14T04:12:09.120Z,98795.37
2018-06-14T04:14:38.068Z,98794.16
2018-06-14T04:17:07.127Z,98795.04
2018-06-14T04:19:36.138Z,98808.52
2018-06-14T04:22:05.152Z,98802.20
2018-06-14T04:24:34.180Z,98803.47
2018-06-14T04:27:03.120Z,98796.39
2018-06-14T04:29:32.064Z,98803.63
2018-06-14T04:32:01.295Z,98802.61
2018-06-14T04:34:30.292Z,98802.38
2018-06-14T04:36:59.356Z,98802.23
2018-06-14T04:39:28.397Z,98798.84
2018-06-14T04:41:57.408Z,98797.06
2018-06-14T04:44:26.369Z,98798.61
2018-06-14T04:46:55.333Z,98800.70
2018-06-14T04:49:24.303Z,98800.83
2018-06-14T04:51:53.428Z,98806.05
2018-06-14T04:54:22.561Z,98801.27
2018-06-14T04:56:51.685Z,98809.98
2018-06-14T04:59:20.756Z,98810.16
2018-06-14T05:01:49.800Z,98816.09
2018-06-14T05:04:18.882Z,98815.58
2018-06-14T05:06:47.985Z,98815.52
2018-06-14T05:09:17.092Z,98812.91
2018-06-14T05:11:46.141Z,98806.63
2018-06-14T05:14:15.229Z,98810.45
2018-06-14T05:16:44.262Z,98814.12
2018-06-14T05:19:13.297Z,98816.39
2018-06-14T05:21:42.328Z,98816.59
2018-06-14T05:24:11.396Z,98823.26
2018-06-14T05:26:40.478Z,98820.19
2018-06-14T05:29:09.452Z,98804.23
2018-06-14T05:31:38.530Z,98809.63
2018-06-14T05:34:07.538Z,98811.76
2018-06-14T05:36:36.575Z,98812.08
2018-06-14T05:39:08.518Z,98819.20
2018-06-14T05:41:37.607Z,98826.98
2018-06-14T05:44:06.616Z,98824.95
2018-06-14T05:46:35.624Z,98824.36
2018-06-14T05:49:05.038Z,98824.24
2018-06-14T05:51:34.016Z,98823.33
2018-06-14T05:54:02.976Z,98815.34
2018-06-14T05:56:31.975Z,98809.47
2018-06-14T05:59:00.948Z,98817.82
2018-06-14T06:01:29.962Z,98820.78
2018-06-14T06:03:59.091Z,98819.64
2018-06-14T06:06:28.194Z,98828.39
2018-06-14T06:08:57.210Z,98821.11
2018-06-14T06:11:26.177Z,98824.16
2018-06-14T06:13:55.138Z,98826.41
2018-06-14T06:16:24.169Z,98825.15
2018-06-14T06:18:53.189Z,98816.30
2018-06-14T06:21:22.257Z,98821.02
2018-06-14T06:23:51.289Z,98818.02
2018-06-14T06:26:20.383Z,98822.67
2018-06-14T06:28:49.374Z,98817.67
2018-06-14T06:31:18.324Z,98818.91
2018-06-14T06:33:47.293Z,98816.53
2018-06-14T06:36:16.318Z,98820.92
2018-06-14T06:38:45.339Z,98819.30
2018-06-14T06:41:14.268Z,98823.56
2018-06-14T06:43:43.309Z,98827.69
2018-06-14T06:46:12.388Z,98827.92
2018-06-14T06:48:41.408Z,98830.19
2018-06-14T06:51:10.430Z,98832.05
2018-06-14T06:53:39.392Z,98832.38
2018-06-14T06:56:08.360Z,98841.28
2018-06-14T06:58:37.388Z,98840.05
2018-06-14T07:01:06.500Z,98845.03
2018-06-14T07:03:35.509Z,98839.16
2018-06-14T07:06:04.611Z,98839.47
2018-06-14T07:08:33.776Z,98843.34
2018-06-14T07:11:02.757Z,98848.67
2018-06-14T07:13:31.774Z,98854.73
2018-06-14T07:16:00.745Z,98855.00
2018-06-14T07:18:29.721Z,98858.58
2018-06-14T07:20:58.741Z,98865.01
2018-06-14T07:23:27.700Z,98857.69
2018-06-14T07:25:56.829Z,98861.22
2018-06-14T07:28:25.930Z,98854.55
2018-06-14T07:30:54.937Z,98850.02
2018-06-14T07:33:23.907Z,98844.50
2018-06-14T07:35:52.944Z,98855.61
2018-06-14T07:38:21.911Z,98854.62
2018-06-14T07:40:50.861Z,98853.20
2018-06-14T07:43:19.932Z,98849.17
2018-06-14T07:45:48.995Z,98847.66
2018-06-14T07:48:18.000Z,98846.61
2018-06-14T07:50:46.989Z,98852.35
2018-06-14T07:53:15.951Z,98863.55
2018-06-14T07:55:44.976Z,98866.13
2018-06-14T07:58:13.943Z,98872.65
2018-06-14T08:00:43.072Z,98873.19
2018-06-14T08:03:12.045Z,98884.97
2018-06-14T08:05:41.031Z,98882.36
2018-06-14T08:08:10.100Z,98881.02
2018-06-14T08:10:39.134Z,98877.17
2018-06-14T08:13:08.210Z,98876.27
2018-06-14T08:15:37.233Z,98873.98
2018-06-14T08:18:06.221Z,98880.34
2018-06-14T08:20:35.233Z,98879.30
2018-06-14T08:23:04.232Z,98876.58
2018-06-14T08:25:33.289Z,98874.38
2018-06-14T08:28:02.331Z,98881.22
2018-06-14T08:30:31.458Z,98887.27
2018-06-14T08:33:00.665Z,98886.14
2018-06-14T08:35:29.758Z,98888.21
2018-06-14T08:37:58.842Z,98905.22
2018-06-14T08:40:27.927Z,98904.66
2018-06-14T08:42:56.955Z,98905.77
2018-06-14T08:45:25.976Z,98903.02
2018-06-14T08:47:54.959Z,98907.59
2018-06-14T08:50:24.029Z,98915.48
2018-06-14T08:52:53.050Z,98920.42
2018-06-14T08:55:22.131Z,98923.78
2018-06-14T08:57:51.160Z,98926.83
2018-06-14T09:00:20.201Z,98936.17
2018-06-14T09:02:49.244Z,98931.56
2018-06-14T09:05:18.217Z,98932.34
2018-06-14T09:07:47.311Z,98935.31
2018-06-14T09:10:16.350Z,98941.31
2018-06-14T09:12:45.308Z,98943.49
2018-06-14T09:15:14.352Z,98949.35
2018-06-14T09:17:43.393Z,98949.73
2018-06-14T09:20:12.476Z,98950.05
2018-06-14T09:22:41.454Z,98948.70
2018-06-14T09:25:10.477Z,98949.81
2018-06-14T09:27:39.506Z,98947.49
2018-06-14T09:30:08.560Z,98946.84
2018-06-14T09:32:37.516Z,98944.63
2018-06-14T09:35:06.937Z,98937.50
2018-06-14T09:37:35.978Z,98933.66
2018-06-14T09:40:05.028Z,98930.38
2018-06-14T09:42:34.107Z,98928.95
2018-06-14T09:45:03.160Z,98922.31
2018-06-14T09:47:32.117Z,98911.89
2018-06-14T09:50:01.083Z,98917.43
2018-06-14T09:52:30.139Z,98915.51
2018-06-14T09:54:59.100Z,98913.53
2018-06-14T09:57:28.129Z,98919.81
2018-06-14T09:59:57.180Z,98925.84
2018-06-14T10:02:26.199Z,98927.73
2018-06-14T10:04:55.159Z,98934.84
2018-06-14T10:07:24.157Z,98936.49
2018-06-14T10:09:53.157Z,98930.80
2018-06-14T10:12:22.135Z,98930.28
2018-06-14T10:14:51.160Z,98925.33
2018-06-14T10:17:20.120Z,98934.11
2018-06-14T10:19:49.153Z,98935.45
2018-06-14T10:22:18.202Z,98948.36
2018-06-14T10:24:47.236Z,98955.61
2018-06-14T10:27:16.276Z,98956.70
2018-06-14T10:29:45.252Z,98948.64
2018-06-14T10:32:14.398Z,98957.19
2018-06-14T10:34:43.414Z,98961.28
2018-06-14T10:37:12.408Z,98969.22
2018-06-14T10:39:41.481Z,98966.48
2018-06-14T10:42:10.498Z,98966.73
2018-06-14T10:44:39.519Z,98964.84
2018-06-14T10:47:08.493Z,98961.02
2018-06-14T10:49:37.446Z,98958.21
2018-06-14T10:52:06.605Z,98952.03
2018-06-14T10:54:35.560Z,98958.89
2018-06-14T10:57:04.577Z,98955.83
2018-06-14T10:59:33.543Z,98954.78
2018-06-14T11:02:02.532Z,98945.31
2018-06-14T11:04:31.564Z,98946.44
2018-06-14T11:07:00.584Z,98936.30
2018-06-14T11:09:29.627Z,98929.58
2018-06-14T11:11:58.580Z,98921.41
2018-06-14T11:14:27.607Z,98916.47
2018-06-14T11:16:56.554Z,98907.05
2018-06-14T11:19:25.521Z,98910.58
2018-06-14T11:21:54.564Z,98905.20
2018-06-14T11:24:23.590Z,98917.39
2018-06-14T11:26:52.661Z,98915.39
2018-06-14T11:29:21.728Z,98915.55
2018-06-14T11:31:50.675Z,98913.08
2018-06-14T11:34:19.676Z,98908.95
2018-06-14T11:36:48.628Z,98910.48
2018-06-14T11:39:17.614Z,98904.55
2018-06-14T11:41:46.710Z,98899.96
2018-06-14T11:44:15.649Z,98892.69
2018-06-14T11:46:44.805Z,98880.76
2018-06-14T11:49:13.767Z,98879.95
2018-06-14T11:51:42.770Z,98881.00
2018-06-14T11:54:11.847Z,98875.18
2018-06-14T11:56:40.769Z,98864.39
2018-06-14T11:59:09.785Z,98871.67
2018-06-14T12:01:38.727Z,98855.53
2018-06-14T12:04:07.753Z,98856.01
2018-06-14T12:06:36.809Z,98848.19
2018-06-14T12:09:07.212Z,98850.64
2018-06-14T12:11:36.156Z,98854.67
2018-06-14T12:14:05.181Z,98853.86
2018-06-14T12:16:34.205Z,98854.23
2018-06-14T12:19:03.323Z,98851.12
2018-06-14T12:21:32.346Z,98852.47
2018-06-14T12:24:01.402Z,98846.03
2018-06-14T12:26:30.526Z,98845.91
2018-06-14T12:28:59.743Z,98840.19
2018-06-14T12:31:28.719Z,98835.37
2018-06-14T12:33:57.780Z,98839.52
2018-06-14T12:36:26.785Z,98846.98
2018-06-14T12:38:55.796Z,98850.27
2018-06-14T12:41:24.785Z,98848.86
2018-06-14T12:43:53.846Z,98850.92
2018-06-14T12:46:22.817Z,98847.56
2018-06-14T12:48:51.775Z,98854.06
2018-06-14T12:51:20.795Z,98858.23
2018-06-14T12:53:49.755Z,98868.44
2018-06-14T12:56:18.873Z,98874.13
2018-06-14T12:58:47.822Z,98875.66
2018-06-14T13:01:16.756Z,98869.77
2018-06-14T13:03:45.709Z,98875.88
2018-06-14T13:06:14.790Z,98867.05
2018-06-14T13:08:43.817Z,98860.81
2018-06-14T13:11:12.894Z,98862.16
2018-06-14T13:13:41.969Z,98868.48
2018-06-14T13:16:10.977Z,98869.61
2018-06-14T13:18:40.340Z,98871.83
2018-06-14T13:21:09.565Z,98874.50
2018-06-14T13:23:38.737Z,98869.64
2018-06-14T13:26:07.705Z,98865.49
2018-06-14T13:28:36.762Z,98867.08
2018-06-14T13:31:05.847Z,98862.95
2018-06-14T13:33:34.816Z,98863.68
2018-06-14T13:36:03.853Z,98857.34
2018-06-14T13:38:32.909Z,98865.61
2018-06-14T13:41:02.072Z,98874.08
2018-06-14T13:43:31.092Z,98872.85
2018-06-14T13:46:00.113Z,98872.18
2018-06-14T13:48:29.146Z,98864.66
2018-06-14T13:50:58.149Z,98855.40
2018-06-14T13:53:27.224Z,98851.32
2018-06-14T13:55:56.225Z,98844.12
2018-06-14T13:58:25.243Z,98850.61
2018-06-14T14:00:54.242Z,98860.38
2018-06-14T14:03:23.898Z,98857.52
2018-06-14T14:05:52.949Z,98859.08
2018-06-14T14:08:21.952Z,98860.14
2018-06-14T14:10:51.024Z,98865.70
2018-06-14T14:13:20.148Z,98866.89
2018-06-14T14:15:49.169Z,98866.88
2018-06-14T14:18:18.204Z,98862.41
2018-06-14T14:20:47.223Z,98860.91
2018-06-14T14:23:16.237Z,98858.65
2018-06-14T14:25:45.235Z,98857.83
2018-06-14T14:28:14.228Z,98847.59
2018-06-14T14:30:43.241Z,98856.20
2018-06-14T14:33:12.235Z,98852.70
2018-06-14T14:35:41.346Z,98844.89
2018-06-14T14:38:10.320Z,98837.52
2018-06-14T14:40:39.288Z,98832.51
2018-06-14T14:43:08.274Z,98835.83
2018-06-14T14:45:37.233Z,98837.25
2018-06-14T14:48:06.235Z,98836.69
2018-06-14T14:50:35.200Z,98833.33
2018-06-14T14:53:04.329Z,98822.33
2018-06-14T14:55:33.393Z,98820.27
2018-06-14T14:58:02.412Z,98826.29
2018-06-14T15:00:31.433Z,98824.20
2018-06-14T15:03:00.418Z,98837.70
2018-06-14T15:05:29.469Z,98852.26
2018-06-14T15:07:58.562Z,98857.56
2018-06-14T15:10:27.598Z,98866.78
2018-06-14T15:12:56.859Z,98877.34
2018-06-14T15:15:25.925Z,98878.42
2018-06-14T15:17:54.923Z,98877.82
2018-06-14T15:20:24.061Z,98876.10
2018-06-14T15:22:53.022Z,98877.86
2018-06-14T15:25:22.060Z,98871.06
2018-06-14T15:27:51.264Z,98876.11
2018-06-14T15:30:20.252Z,98880.07
2018-06-14T15:32:49.309Z,98895.53
2018-06-14T15:35:18.255Z,98907.73
2018-06-14T15:37:47.216Z,98915.29
2018-06-14T15:40:16.252Z,98924.66
2018-06-14T15:42:45.199Z,98927.47
2018-06-14T15:45:14.166Z,98928.84
2018-06-14T15:47:43.111Z,98926.10
2018-06-14T15:50:12.154Z,98936.81
2018-06-14T15:52:41.091Z,98939.05
2018-06-14T15:55:20.889Z,98929.78
2018-06-14T15:57:49.939Z,98930.34
2018-06-14T16:00:18.900Z,98931.52
2018-06-14T16:02:47.867Z,98929.05
2018-06-14T16:05:18.337Z,98934.03
2018-06-14T16:07:48.245Z,98923.62
2018-06-14T16:10:17.414Z,98921.70
2018-06-14T16:12:46.376Z,98916.02
2018-06-14T16:15:15.326Z,98916.56
2018-06-14T16:17:44.264Z,98915.46
2018-06-14T16:20:13.236Z,98910.56
2018-06-14T16:22:42.276Z,98909.22
2018-06-14T16:25:11.278Z,98902.62
2018-06-14T16:27:40.337Z,98900.73
2018-06-14T16:30:09.360Z,98909.79
2018-06-14T16:32:38.299Z,98899.13
2018-06-14T16:35:07.264Z,98884.62
2018-06-14T16:37:36.192Z,98879.98
2018-06-14T16:40:05.172Z,98882.98
2018-06-14T16:42:34.180Z,98896.11
2018-06-14T16:45:03.148Z,98890.39
2018-06-14T16:47:32.123Z,98901.86
2018-06-14T16:50:01.197Z,98921.04
2018-06-14T16:52:30.176Z,98928.16
2018-06-14T16:54:59.226Z,98938.00
2018-06-14T16:57:28.340Z,98944.59
2018-06-14T16:59:57.525Z,98946.50
2018-06-14T17:02:26.513Z,98962.38
2018-06-14T17:04:55.644Z,98967.28
2018-06-14T17:07:24.819Z,98972.73
2018-06-14T17:09:53.941Z,98982.32
2018-06-14T17:12:22.982Z,98980.34
2018-06-14T17:14:52.017Z,98973.72
2018-06-14T17:17:20.977Z,98968.47
2018-06-14T17:19:50.016Z,98963.80
2018-06-14T17:22:18.997Z,98975.74
2018-06-14T17:24:47.995Z,98970.41
2018-06-14T17:27:17.017Z,98956.55
2018-06-14T17:29:46.028Z,98966.88
2018-06-14T17:32:15.048Z,98980.02
2018-06-14T17:34:44.060Z,98982.16
2018-06-14T17:37:13.063Z,98967.94
2018-06-14T17:39:42.024Z,98962.69
2018-06-14T17:42:11.030Z,98958.05
2018-06-14T17:44:40.148Z,98958.39
2018-06-14T17:47:09.316Z,98962.50
2018-06-14T17:49:38.300Z,98959.00
2018-06-14T17:52:07.406Z,98973.75
2018-06-14T17:54:36.401Z,98984.39
2018-06-14T17:57:05.464Z,98983.03
2018-06-14T17:59:34.546Z,98994.18
2018-06-14T18:02:03.554Z,98989.78
2018-06-14T18:04:32.565Z,98988.95
2018-06-14T18:07:01.553Z,98979.97
2018-06-14T18:09:30.501Z,98977.52
2018-06-14T18:11:59.739Z,98983.28
2018-06-14T18:14:28.790Z,98989.31
2018-06-14T18:16:57.770Z,98986.84
2018-06-14T18:19:26.829Z,98986.05
2018-06-14T18:21:55.829Z,98985.99
2018-06-14T18:24:24.799Z,98977.28
2018-06-14T18:26:53.857Z,98972.11
2018-06-14T18:29:22.954Z,98963.94
2018-06-14T18:31:51.984Z,98964.79
2018-06-14T18:34:20.983Z,98954.14
2018-06-14T18:36:49.944Z,98950.58
2018-06-14T18:39:18.913Z,98934.42
2018-06-14T18:41:47.956Z,98922.45
2018-06-14T18:44:16.927Z,98926.28
2018-06-14T18:46:45.925Z,98927.34
2018-06-14T18:49:14.876Z,98926.26
2018-06-14T18:51:43.945Z,98942.90
2018-06-14T18:54:12.940Z,98948.59
2018-06-14T18:56:42.225Z,98946.09
2018-06-14T18:59:11.220Z,98946.93
2018-06-14T19:01:40.216Z,98950.20
2018-06-14T19:04:09.279Z,98945.82
2018-06-14T19:06:38.332Z,98947.98
2018-06-14T19:09:09.444Z,98933.75
2018-06-14T19:11:38.467Z,98932.67
2018-06-14T19:14:07.799Z,98941.37
2018-06-14T19:16:37.077Z,98947.63
2018-06-14T19:19:06.234Z,98945.97
2018-06-14T19:21:35.187Z,98950.89
2018-06-14T19:24:04.173Z,98941.89
2018-06-14T19:26:33.150Z,98936.42
2018-06-14T19:29:02.157Z,98930.97
2018-06-14T19:31:31.240Z,98925.80
2018-06-14T19:34:00.680Z,98915.73
2018-06-14T19:36:29.662Z,98907.28
2018-06-14T19:38:58.657Z,98907.77
2018-06-14T19:41:27.605Z,98909.97
2018-06-14T19:43:56.597Z,98908.60
2018-06-14T19:46:25.633Z,98908.31
2018-06-14T19:48:54.583Z,98915.88
2018-06-14T19:51:23.619Z,98912.56
2018-06-14T19:53:52.704Z,98912.53
2018-06-14T19:56:21.696Z,98920.95
2018-06-14T19:58:50.663Z,98924.75
2018-06-14T20:01:19.593Z,98929.10
2018-06-14T20:03:48.585Z,98937.22
2018-06-14T20:06:17.550Z,98935.25
2018-06-14T20:08:46.569Z,98937.63
2018-06-14T20:11:15.732Z,98936.20
2018-06-14T20:13:44.668Z,98933.95
2018-06-14T20:16:13.728Z,98936.06
2018-06-14T20:18:42.813Z,98938.72
2018-06-14T20:21:11.814Z,98930.00
2018-06-14T20:23:40.748Z,98934.30
2018-06-14T20:26:09.764Z,98930.44
2018-06-14T20:28:38.772Z,98929.56
2018-06-14T20:31:07.780Z,98927.59
2018-06-14T20:33:36.796Z,98925.33
2018-06-14T20:36:05.736Z,98927.72
2018-06-14T20:38:34.749Z,98935.61
2018-06-14T20:41:03.704Z,98936.63
2018-06-14T20:43:32.643Z,98932.47
2018-06-14T20:46:01.658Z,98936.75
2018-06-14T20:48:30.626Z,98939.72
2018-06-14T20:50:59.744Z,98944.59
2018-06-14T20:53:28.708Z,98949.75
2018-06-14T20:55:57.660Z,98948.67
2018-06-14T20:58:26.616Z,98957.37
2018-06-14T21:00:55.563Z,98956.97
2018-06-14T21:03:24.569Z,98958.48
2018-06-14T21:05:53.520Z,98958.19
2018-06-14T21:08:22.495Z,98965.57
2018-06-14T21:10:51.436Z,98964.79
2018-06-14T21:13:20.444Z,98967.76
2018-06-14T21:15:49.458Z,98973.92
2018-06-14T21:18:18.516Z,98974.66
2018-06-14T21:20:47.576Z,98974.66
2018-06-14T21:23:16.527Z,98965.37
2018-06-14T21:25:45.476Z,98963.22
2018-06-14T21:28:14.419Z,98964.50
2018-06-14T21:30:43.482Z,98964.45
2018-06-14T21:33:12.627Z,98969.59
2018-06-14T21:35:41.696Z,98971.44
2018-06-14T21:38:10.764Z,98964.23
2018-06-14T21:40:39.784Z,98969.43
2018-06-14T21:43:08.729Z,98968.27
2018-06-14T21:45:37.790Z,98970.97
2018-06-14T21:48:06.805Z,98979.08
2018-06-14T21:50:35.760Z,98988.31
2018-06-14T21:53:04.844Z,98984.18
2018-06-14T21:55:33.820Z,98971.89
2018-06-14T21:58:02.812Z,98976.48
2018-06-14T22:00:31.833Z,98965.56
2018-06-14T22:03:05.881Z,98966.39
2018-06-14T22:05:34.868Z,98960.36
2018-06-14T22:08:03.970Z,98961.95
2018-06-14T22:10:33.033Z,98960.30
2018-06-14T22:13:02.032Z,98959.42
2018-06-14T22:15:31.063Z,98962.60
2018-06-14T22:18:00.061Z,98966.63
2018-06-14T22:20:29.244Z,98974.33
2018-06-14T22:22:58.230Z,98978.16
2018-06-14T22:25:27.180Z,98986.38
2018-06-14T22:27:56.126Z,98983.60
2018-06-14T22:30:25.089Z,98977.63
2018-06-14T22:33:05.101Z,98980.00
2018-06-14T22:35:34.144Z,98980.23
2018-06-14T22:38:03.095Z,98988.57
2018-06-14T22:40:32.088Z,98992.36
2018-06-14T22:43:01.153Z,98995.08
2018-06-14T22:45:30.236Z,98985.45
2018-06-14T22:47:59.176Z,98977.48
2018-06-14T22:50:39.176Z,98983.73
2018-06-14T22:53:09.299Z,98976.93
2018-06-14T22:55:38.280Z,98975.28
2018-06-14T22:58:07.255Z,98974.98
2018-06-14T23:00:50.777Z,98980.20
2018-06-14T23:03:19.715Z,98978.02
2018-06-14T23:05:48.818Z,98977.48
2018-06-14T23:08:17.776Z,98973.84
2018-06-14T23:10:57.792Z,98971.53
2018-06-14T23:13:26.781Z,98971.13
2018-06-14T23:15:55.800Z,98977.80
2018-06-14T23:18:24.740Z,98972.17
2018-06-14T23:20:53.673Z,98972.48
2018-06-14T23:23:22.627Z,98968.69
2018-06-14T23:25:51.685Z,98972.23
2018-06-14T23:28:20.681Z,98978.16
2018-06-14T23:30:49.622Z,98975.42
2018-06-14T23:33:18.660Z,98983.58
2018-06-14T23:35:47.636Z,98978.91
2018-06-14T23:38:16.627Z,98984.06
2018-06-14T23:40:45.793Z,98977.27
2018-06-14T23:43:14.781Z,98974.25
2018-06-14T23:45:43.734Z,98973.48
2018-06-14T23:48:12.733Z,98982.77
2018-06-14T23:50:41.813Z,98983.65
2018-06-14T23:53:10.740Z,98980.10
2018-06-14T23:55:39.744Z,98976.07
2018-06-14T23:58:08.764Z,98973.13
